Time;durP1;ratioP1;P1;durP2;ratioP2;P2;SDS_P1;SDS_P2;PMS_P1;PMS_P2;Temp;Humidity;BMP_temperature;BMP_pressure;BME280_temperature;BME280_humidity;BME280_pressure;Samples;Min_cycle;Max_cycle;Signal;HPM_P1;HPM_P2
2023/11/21 06:14:09;;;;;;;;;;;;;;;-1.48;100.00;100019.26;1822377;78;20117;-74
2023/11/21 06:16:35;;;;;;;;;;;;;;;-1.44;100.00;100022.20;1821573;78;20093;-70
2023/11/21 06:19:02;;;;;;;;;;;;;;;-1.36;100.00;100023.00;1829599;78;20128;-71
2023/11/21 06:21:29;;;;;;;;;;;;;;;-1.27;100.00;100026.34;1833057;78;20110;-71
2023/11/21 06:23:56;;;;;;;;;;;;;;;-1.18;100.00;100031.35;1801923;78;20141;-76
2023/11/21 06:26:25;;;;;;;;;;;;;;;-1.09;100.00;100031.28;1826321;78;20210;-72
2023/11/21 06:28:52;;;;;;;;;;;;;;;-1.01;100.00;100035.46;1812766;78;20093;-73
2023/11/21 06:31:19;;;;;;;;;;;;;;;-0.93;100.00;100024.33;1792070;78;20426;-74
2023/11/21 06:33:46;;;;;;;;;;;;;;;-0.84;100.00;100031.48;1819677;77;20158;-72
2023/11/21 06:36:13;;;;;;;;;;;;;;;-0.77;100.00;100036.92;1813881;78;20081;-74
2023/11/21 06:38:39;;;;;;;;;;;;;;;-0.69;100.00;100039.40;1773419;80;20135;-73
2023/11/21 06:41:07;;;;;;;;;;;;;;;-0.60;100.00;100041.87;1755383;81;20180;-73
2023/11/21 06:43:40;;;;;;;;;;;;;;;-0.51;100.00;100044.33;1778385;80;20129;-76
2023/11/21 06:46:07;;;;;;;;;;;;;;;-0.41;100.00;100052.75;1783342;79;20159;-73
2023/11/21 06:48:38;;;;;;;;;;;;;;;-0.35;100.00;100051.38;1775518;79;20172;-74
2023/11/21 06:51:06;;;;;;;;;;;;;;;-0.31;100.00;100044.09;1774654;79;20188;-78
2023/11/21 06:53:33;;;;;;;;;;;;;;;-0.25;100.00;100046.57;1776117;80;20186;-73
2023/11/21 06:56:00;;;;;;;;;;;;;;;-0.20;100.00;100043.53;1764788;81;20463;-74
2023/11/21 06:58:27;;;;;;;;;;;;;;;-0.14;100.00;100046.02;1765402;80;20117;-70
2023/11/21 07:00:53;;;;;;;;;;;;;;;-0.10;100.00;100052.80;1763644;81;20123;-73
2023/11/21 07:03:20;;;;;;;;;;;;;;;-0.07;100.00;100042.95;1762888;81;20093;-77
2023/11/21 07:05:48;;;;;;;;;;;;;;;-0.03;100.00;100054.84;1764162;81;20162;-73
2023/11/21 07:08:18;;;;;;;;;;;;;;;0.03;100.00;100048.77;1752013;81;20105;-73
2023/11/21 07:10:47;;;;;;;;;;;;;;;0.10;100.00;100046.55;1755777;82;20164;-75
2023/11/21 07:13:13;;;;;;;;;;;;;;;0.17;100.00;100045.60;1756226;81;20140;-74
2023/11/21 07:15:47;;;;;;;;;;;;;;;0.25;100.00;100041.23;1757368;81;20169;-73
2023/11/21 07:18:15;;;;;;;;;;;;;;;0.33;100.00;100044.53;1745432;81;20110;-75
2023/11/21 07:20:44;;;;;;;;;;;;;;;0.40;100.00;100051.23;1747860;80;20178;-74
2023/11/21 07:23:11;;;;;;;;;;;;;;;0.45;100.00;100049.88;1754506;81;20089;-71
2023/11/21 07:25:38;;;;;;;;;;;;;;;0.49;100.00;100052.81;1748526;81;21029;-75
2023/11/21 07:28:05;;;;;;;;;;;;;;;0.53;100.00;100056.59;1752521;81;20150;-73
2023/11/21 07:30:32;;;;;;;;;;;;;;;0.55;100.00;100049.73;1747390;81;20290;-78
2023/11/21 07:32:59;;;;;;;;;;;;;;;0.60;100.00;100054.35;1718058;82;20112;-77
2023/11/21 07:35:26;;;;;;;;;;;;;;;0.61;100.00;100055.20;1750294;81;20396;-71
2023/11/21 07:37:53;;;;;;;;;;;;;;;0.64;100.00;100067.53;1746520;80;20136;-73
2023/11/21 07:40:19;;;;;;;;;;;;;;;0.70;100.00;100067.87;1751812;81;20388;-73
2023/11/21 07:42:46;;;;;;;;;;;;;;;0.77;100.00;100069.91;1745579;81;20232;-72
2023/11/21 07:45:15;;;;;;;;;;;;;;;0.81;100.00;100075.38;1767759;81;20148;-74
2023/11/21 07:47:41;;;;;;;;;;;;;;;0.87;100.00;100065.02;1743212;82;20114;-74
2023/11/21 07:50:10;;;;;;;;;;;;;;;0.90;100.00;100062.41;1769902;79;20409;-73
2023/11/21 07:52:37;;;;;;;;;;;;;;;0.95;100.00;100069.16;1753048;80;20165;-74
2023/11/21 07:55:05;;;;;;;;;;;;;;;1.03;100.00;100074.17;1773137;79;20199;-72
2023/11/21 07:57:32;;;;;;;;;;;;;;;1.08;100.00;100072.38;1764810;81;20169;-75
2023/11/21 08:00:00;;;;;;;;;;;;;;;1.10;100.00;100077.05;1752718;80;20179;-73
2023/11/21 08:02:29;;;;;;;;;;;;;;;1.13;100.00;100077.43;1732755;82;20559;-72
2023/11/21 08:04:56;;;;;;;;;;;;;;;1.19;100.00;100073.48;1732770;82;20100;-77
2023/11/21 08:07:25;;;;;;;;;;;;;;;1.22;100.00;100076.81;1727063;82;20111;-74
2023/11/21 08:09:52;;;;;;;;;;;;;;;1.26;100.00;100078.89;1741216;81;20134;-76
2023/11/21 08:12:20;;;;;;;;;;;;;;;1.28;100.00;100072.86;1717253;82;20155;-77
2023/11/21 08:14:46;;;;;;;;;;;;;;;1.33;100.00;100072.78;1739024;82;20083;-73
2023/11/21 08:17:13;;;;;;;;;;;;;;;1.37;100.00;100068.00;1737988;82;20107;-75
2023/11/21 08:19:40;;;;;;;;;;;;;;;1.42;100.00;100071.34;1744949;82;20130;-74
2023/11/21 08:22:07;;;;;;;;;;;;;;;1.51;100.00;100064.76;1753101;82;20534;-76
2023/11/21 08:34:44;;;;;;;;;;;;;;;1.73;100.00;100057.47;1721850;82;20448;-75
2023/11/21 08:37:12;;;;;;;;;;;;;;;1.68;100.00;100063.13;1742835;82;20398;-73
2023/11/21 08:39:43;;;;;;;;;;;;;;;1.60;100.00;100050.91;1740355;82;20148;-75
2023/11/21 08:42:08;;;;;;;;;;;;;;;1.52;100.00;100054.91;1743706;81;20517;-75
2023/11/21 08:44:34;;;;;;;;;;;;;;;1.46;100.00;100046.47;1754876;82;20104;-77
2023/11/21 08:47:07;;;;;;;;;;;;;;;1.38;100.00;100048.33;1745039;80;20153;-75
2023/11/21 08:49:35;;;;;;;;;;;;;;;1.28;100.00;100046.36;1728229;82;20177;-72
2023/11/21 08:52:02;;;;;;;;;;;;;;;1.22;100.00;100052.44;1737147;82;20182;-74
2023/11/21 08:54:34;;;;;;;;;;;;;;;1.20;100.00;100041.84;1701596;82;20189;-73
2023/11/21 08:57:03;;;;;;;;;;;;;;;1.18;100.00;100043.58;1743272;82;20150;-72
2023/11/21 08:59:30;;;;;;;;;;;;;;;1.16;100.00;100047.45;1747876;82;20163;-73
2023/11/21 09:01:57;;;;;;;;;;;;;;;1.15;100.00;100044.48;1739254;82;20118;-77
2023/11/21 09:04:25;;;;;;;;;;;;;;;1.12;100.00;100036.84;1749486;81;20122;-72
2023/11/21 09:06:52;;;;;;;;;;;;;;;1.10;100.00;100038.58;1736653;82;20195;-73
2023/11/21 09:09:19;;;;;;;;;;;;;;;1.09;100.00;100031.76;1723193;82;20140;-74
2023/11/21 09:11:49;;;;;;;;;;;;;;;1.09;100.00;100026.63;1720191;83;20160;-73
2023/11/21 09:14:15;;;;;;;;;;;;;;;1.09;100.00;100031.76;1717336;83;20101;-76
2023/11/21 09:24:20;;;;;;;;;;;;;;;0.95;100.00;100034.98;1750912;82;20161;-72
2023/11/21 09:26:46;;;;;;;;;;;;;;;0.94;100.00;100037.14;1731399;83;20102;-75
2023/11/21 09:29:13;;;;;;;;;;;;;;;0.95;100.00;100037.12;1724516;83;20108;-74
2023/11/21 09:31:40;;;;;;;;;;;;;;;0.96;100.00;100039.24;1720419;82;20849;-75
2023/11/21 09:34:07;;;;;;;;;;;;;;;0.98;100.00;100040.06;1722603;83;20155;-74
2023/11/21 09:36:35;;;;;;;;;;;;;;;0.97;100.00;100039.22;1721873;83;20168;-77
2023/11/21 09:39:08;;;;;;;;;;;;;;;0.96;100.00;100031.55;1720611;82;20116;-75
2023/11/21 09:49:47;;;;;;;;;;;;;;;0.92;100.00;100038.88;1726210;82;20191;-75
2023/11/21 09:52:26;;;;;;;;;;;;;;;0.84;100.00;100041.57;1723886;83;20271;-75
2023/11/21 09:55:00;;;;;;;;;;;;;;;0.82;100.00;100048.88;1722384;83;20158;-71
2023/11/21 09:57:25;;;;;;;;;;;;;;;0.80;100.00;100042.48;1690616;83;20123;-72
2023/11/21 10:05:00;;;;;;;;;;;;;;;0.76;100.00;100046.44;1725189;82;20164;-72
2023/11/21 10:07:26;;;;;;;;;;;;;;;0.76;100.00;100045.16;1734100;83;20466;-70
2023/11/21 10:53:09;;;;;;;;;;;;;;;1.31;100.00;100070.67;1738224;81;20220;-75
2023/11/21 10:55:36;;;;;;;;;;;;;;;1.36;100.00;100074.02;1738212;81;20146;-76
2023/11/21 10:58:04;;;;;;;;;;;;;;;1.38;100.00;100076.11;1743944;82;20142;-82
2023/11/21 11:00:32;;;;;;;;;;;;;;;1.39;100.00;100074.39;1735598;81;20094;-74
2023/11/21 11:03:00;;;;;;;;;;;;;;;1.39;100.00;100077.80;1730980;82;20180;-74
2023/11/21 11:05:29;;;;;;;;;;;;;;;1.37;100.00;100069.73;1731031;82;20167;-73
2023/11/21 11:08:01;;;;;;;;;;;;;;;1.37;100.00;100074.86;1734969;81;20173;-74
2023/11/21 11:10:29;;;;;;;;;;;;;;;1.38;100.00;100070.13;1752498;81;20170;-76
2023/11/21 11:13:00;;;;;;;;;;;;;;;1.39;100.00;100072.67;1767043;80;20195;-73
2023/11/21 11:15:27;;;;;;;;;;;;;;;1.39;100.00;100070.11;1778998;80;20101;-67
2023/11/21 11:17:57;;;;;;;;;;;;;;;1.39;100.00;100075.23;1772948;80;20121;-71
2023/11/21 11:20:30;;;;;;;;;;;;;;;1.37;100.00;100070.57;1784334;80;20128;-70
2023/11/21 11:23:34;;;;;;;;;;;;;;;1.38;100.00;100070.13;1766579;80;20138;-70
2023/11/21 11:26:17;;;;;;;;;;;;;;;1.37;100.00;100074.42;1751655;82;20152;-69
2023/11/21 11:28:54;;;;;;;;;;;;;;;1.33;100.00;100067.22;1760587;81;20444;-70
2023/11/21 11:31:38;;;;;;;;;;;;;;;1.31;100.00;100064.27;1765454;81;20177;-69
2023/11/21 11:34:30;;;;;;;;;;;;;;;1.30;100.00;100064.70;1756516;81;20162;-74
2023/11/21 11:37:03;;;;;;;;;;;;;;;1.31;100.00;100070.67;1761771;81;20191;-76
2023/11/21 11:39:32;;;;;;;;;;;;;;;1.25;100.00;100072.06;1762395;81;20180;-71
2023/11/21 11:42:01;;;;;;;;;;;;;;;1.22;100.00;100070.83;1752402;81;20388;-70
2023/11/21 11:44:46;;;;;;;;;;;;;;;1.18;100.00;100073.07;1732369;81;20525;-73
2023/11/21 11:47:16;;;;;;;;;;;;;;;1.16;100.00;100065.84;1755181;81;20416;-72
2023/11/21 11:50:13;;;;;;;;;;;;;;;1.17;100.00;100072.22;1759649;81;20131;-70
2023/11/21 11:52:43;;;;;;;;;;;;;;;1.18;100.00;100071.36;1752148;81;20098;-70
